Mammoth, AZ (85618)

12:55 PM MST on Oktober 21, 2014 (GMT -0700)
KAZMAMMO2 | Change Station
CLOSE
Current Station
Personligvejrstation
Location: Mammoth, AZ
Højde: 2600 ft
Vejrstationer i nærheden

Elev 2600 ft 32.70 °N, 110.65 °W | Updated 1 second ago

Let skyet
Let skyet
83.3 ° F
Føles som 82 ° F
N
1.1
Vind Skiftende Vind ØSØ
Gusts 1.1 mph

I dag
Høj -- | Lav -- ° F
--% Risiko for nedbør
I går
Høj -- | Lav -- ° F
Precip. -- tommer
6:31 AM 5:42 PM
Aftagende halvmåne, 4% visible
Tryk 29.83 tommer
Sigtbarhed 10.0 mil
Skyer Klart
Varmeindeks 82 ° F
Dugpunkt 52 ° F
Luftfugtighed 34%
Regnmængde 0.00 tommer
Snedybde Ikke tilgængelig.
UV 7 fra 12
Pollen 5.50 fra 12
Luftkvalitet Ikke tilgængelig.
Flu Activity No Activity
METAR KDMA 211858Z AUTO 08004KT 10SM CLR 27/08 A2994 RMK AO2 SLP102 T02670075 $

More Conditions Fewer Conditions

Tryk 29.83 tommer
Sigtbarhed 10.0 mil
Skyer Klart
Varmeindeks 82 ° F
Dugpunkt 52 ° F
Luftfugtighed 34%
Regnmængde 0.00 tommer
Snedybde Ikke tilgængelig.
UV 7 fra 12
Pollen 5.50 fra 12
Luftkvalitet Ikke tilgængelig.
Flu Activity No Activity
METAR KDMA 211858Z AUTO 08004KT 10SM CLR 27/08 A2994 RMK AO2 SLP102 T02670075 $

More Conditions Fewer Conditions

10-Day Weather Forecast

Almanac

Astronomi

Oct. 21, 2014 Opgang Nedgang
Faktisktidspunkt 6:31 AM MST 5:42 PM MST
Civilttusmørke 6:06 AM MST 6:07 PM MST
Nautisktusmørke 5:37 AM MST 6:36 PM MST
Astronomisktusmørke 5:08 AM MST 7:04 PM MST
Måne 4:25 AM MST 4:33 PM MST
Synligtlys’ længde 12h 01m
Dagens længde
11h 11m
Tomorrow will be 1m 52s shorter.
Aftagende halvmåne, 4% of the Moon is Illuminated
I dag
Aftagende halvmåne
Okt. 23
Ny
Okt. 30
Første kvartal
Nov. 6
Fuldmåne
Nov. 14
Sidste kvartal

Ekstremer i dag

State Highs State Lows

Community

WunderPhotos

Upload Photos

1,763,754 Billeder uploaded!

Nearby

Snedybde

Station Depth Højde
Workman Creek 0 in 6900 ft
Beaver Head 0 in 7990 ft
Maverick Fork 0 in 9200 ft
Baldy 1 in 9125 ft
Snowslide Canyon 0 in 9730 ft

Jordskælvsaktivitet

By Distance Mag. Time & Date
No recent earthquake activity has been reported nearby.
Minimum magnitude displayed is 2.5.

Kystnære vandtemperaturer

Sted Temperatur
Ingen stationer rapporterer

Vejrstationer i nærheden